sensor_id;sensor_type;location;lat;lon;timestamp;pressure;altitude;pressure_sealevel;temperature;humidity
68948;BME280;55996;49.546;7.400;2022-07-12T00:01:03;99398.31;;;16.58;93.89
68948;BME280;55996;49.546;7.400;2022-07-12T00:03:28;99391.03;;;16.63;92.35
68948;BME280;55996;49.546;7.400;2022-07-12T00:05:54;99395.75;;;16.56;93.73
68948;BME280;55996;49.546;7.400;2022-07-12T00:08:20;99389.03;;;16.49;94.13
68948;BME280;55996;49.546;7.400;2022-07-12T00:10:45;99382.19;;;16.45;95.22
68948;BME280;55996;49.546;7.400;2022-07-12T00:13:11;99403.72;;;16.36;96.36
68948;BME280;55996;49.546;7.400;2022-07-12T00:15:36;99414.50;;;16.31;96.18
68948;BME280;55996;49.546;7.400;2022-07-12T00:18:02;99416.28;;;16.30;96.79
68948;BME280;55996;49.546;7.400;2022-07-12T00:20:28;99402.56;;;16.22;95.85
68948;BME280;55996;49.546;7.400;2022-07-12T00:22:54;99408.91;;;16.18;97.57
68948;BME280;55996;49.546;7.400;2022-07-12T00:25:20;99401.97;;;16.16;97.66
68948;BME280;55996;49.546;7.400;2022-07-12T00:27:46;99415.44;;;16.30;95.46
68948;BME280;55996;49.546;7.400;2022-07-12T00:30:11;99393.59;;;16.26;96.30
68948;BME280;55996;49.546;7.400;2022-07-12T00:32:37;99393.16;;;16.17;95.55
68948;BME280;55996;49.546;7.400;2022-07-12T00:35:03;99394.44;;;16.27;94.64
68948;BME280;55996;49.546;7.400;2022-07-12T00:37:29;99392.88;;;16.23;94.56
68948;BME280;55996;49.546;7.400;2022-07-12T00:39:55;99398.88;;;16.26;96.01
68948;BME280;55996;49.546;7.400;2022-07-12T00:42:20;99395.34;;;16.26;96.50
68948;BME280;55996;49.546;7.400;2022-07-12T00:44:46;99393.94;;;16.19;97.09
68948;BME280;55996;49.546;7.400;2022-07-12T00:47:48;99389.88;;;16.11;97.64
68948;BME280;55996;49.546;7.400;2022-07-12T00:52:38;99388.06;;;16.12;95.87
68948;BME280;55996;49.546;7.400;2022-07-12T00:55:05;99387.16;;;16.13;95.55
68948;BME280;55996;49.546;7.400;2022-07-12T00:57:32;99395.88;;;16.15;95.04
68948;BME280;55996;49.546;7.400;2022-07-12T00:59:58;99382.16;;;16.07;94.16
68948;BME280;55996;49.546;7.400;2022-07-12T01:02:23;99388.69;;;15.98;92.46
68948;BME280;55996;49.546;7.400;2022-07-12T01:04:50;99394.16;;;15.93;94.74
68948;BME280;55996;49.546;7.400;2022-07-12T01:07:16;99385.25;;;15.96;95.71
68948;BME280;55996;49.546;7.400;2022-07-12T01:09:43;99384.41;;;15.95;96.54
68948;BME280;55996;49.546;7.400;2022-07-12T01:12:09;99377.53;;;15.91;94.40
68948;BME280;55996;49.546;7.400;2022-07-12T01:14:34;99388.53;;;16.01;94.08
68948;BME280;55996;49.546;7.400;2022-07-12T01:17:00;99386.84;;;16.00;93.51
68948;BME280;55996;49.546;7.400;2022-07-12T01:19:27;99381.84;;;15.94;94.08
68948;BME280;55996;49.546;7.400;2022-07-12T01:21:57;99391.06;;;16.04;93.66
68948;BME280;55996;49.546;7.400;2022-07-12T01:24:24;99392.25;;;15.97;94.66
68948;BME280;55996;49.546;7.400;2022-07-12T01:26:50;99404.38;;;16.01;93.01
68948;BME280;55996;49.546;7.400;2022-07-12T01:29:16;99398.97;;;15.84;91.54
68948;BME280;55996;49.546;7.400;2022-07-12T01:31:42;99393.47;;;15.68;94.55
68948;BME280;55996;49.546;7.400;2022-07-12T01:34:08;99392.63;;;15.67;96.09
68948;BME280;55996;49.546;7.400;2022-07-12T01:36:34;99404.22;;;15.63;95.54
68948;BME280;55996;49.546;7.400;2022-07-12T01:39:03;99403.25;;;15.65;95.34
68948;BME280;55996;49.546;7.400;2022-07-12T01:41:29;99393.63;;;15.64;96.10
68948;BME280;55996;49.546;7.400;2022-07-12T01:43:56;99406.00;;;15.62;96.30
68948;BME280;55996;49.546;7.400;2022-07-12T01:46:21;99393.94;;;15.57;94.83
68948;BME280;55996;49.546;7.400;2022-07-12T01:48:47;99404.88;;;15.68;94.65
68948;BME280;55996;49.546;7.400;2022-07-12T01:51:12;99410.69;;;15.56;94.26
68948;BME280;55996;49.546;7.400;2022-07-12T01:53:38;99409.31;;;15.45;95.67
68948;BME280;55996;49.546;7.400;2022-07-12T01:56:03;99410.38;;;15.41;95.65
68948;BME280;55996;49.546;7.400;2022-07-12T01:58:30;99390.38;;;15.37;96.07
68948;BME280;55996;49.546;7.400;2022-07-12T02:00:56;99378.78;;;15.19;98.23
68948;BME280;55996;49.546;7.400;2022-07-12T02:03:22;99402.31;;;15.24;99.62
68948;BME280;55996;49.546;7.400;2022-07-12T02:05:47;99403.16;;;15.24;98.60
68948;BME280;55996;49.546;7.400;2022-07-12T02:08:13;99363.13;;;14.94;97.86
68948;BME280;55996;49.546;7.400;2022-07-12T02:10:39;99389.81;;;15.29;97.43
68948;BME280;55996;49.546;7.400;2022-07-12T02:13:05;99390.38;;;15.37;98.00
68948;BME280;55996;49.546;7.400;2022-07-12T02:15:31;99391.34;;;15.55;98.83
68948;BME280;55996;49.546;7.400;2022-07-12T02:17:56;99393.22;;;15.53;97.37
68948;BME280;55996;49.546;7.400;2022-07-12T02:20:22;99397.56;;;15.54;98.31
68948;BME280;55996;49.546;7.400;2022-07-12T02:22:48;99390.38;;;15.58;96.91
68948;BME280;55996;49.546;7.400;2022-07-12T02:25:13;99402.97;;;15.72;97.13
68948;BME280;55996;49.546;7.400;2022-07-12T02:27:39;99403.34;;;15.62;94.91
68948;BME280;55996;49.546;7.400;2022-07-12T02:30:09;99397.09;;;15.65;92.08
68948;BME280;55996;49.546;7.400;2022-07-12T02:32:35;99389.53;;;15.57;92.05
68948;BME280;55996;49.546;7.400;2022-07-12T02:35:02;99404.28;;;15.61;90.58
68948;BME280;55996;49.546;7.400;2022-07-12T02:37:27;99394.31;;;15.47;90.79
68948;BME280;55996;49.546;7.400;2022-07-12T02:39:52;99394.47;;;15.44;92.18
68948;BME280;55996;49.546;7.400;2022-07-12T02:42:38;99393.38;;;15.28;93.50
68948;BME280;55996;49.546;7.400;2022-07-12T02:45:05;99388.59;;;15.15;93.58
68948;BME280;55996;49.546;7.400;2022-07-12T02:47:30;99392.16;;;15.14;93.59
68948;BME280;55996;49.546;7.400;2022-07-12T02:49:56;99410.41;;;15.19;94.31
68948;BME280;55996;49.546;7.400;2022-07-12T02:52:21;99403.44;;;14.96;95.89
68948;BME280;55996;49.546;7.400;2022-07-12T02:54:46;99397.00;;;15.03;96.99
68948;BME280;55996;49.546;7.400;2022-07-12T02:57:12;99389.22;;;15.00;96.59
68948;BME280;55996;49.546;7.400;2022-07-12T02:59:37;99399.13;;;14.93;96.99
68948;BME280;55996;49.546;7.400;2022-07-12T03:02:03;99412.72;;;14.82;97.23
68948;BME280;55996;49.546;7.400;2022-07-12T03:04:28;99411.31;;;14.74;96.25
68948;BME280;55996;49.546;7.400;2022-07-12T03:06:54;99396.22;;;14.53;97.67
68948;BME280;55996;49.546;7.400;2022-07-12T03:09:19;99403.69;;;14.66;97.14
68948;BME280;55996;49.546;7.400;2022-07-12T03:11:44;99418.34;;;14.73;97.28
68948;BME280;55996;49.546;7.400;2022-07-12T03:14:10;99411.31;;;14.74;96.10
68948;BME280;55996;49.546;7.400;2022-07-12T03:16:35;99429.13;;;14.89;95.13
68948;BME280;55996;49.546;7.400;2022-07-12T03:19:01;99422.13;;;14.90;95.75
68948;BME280;55996;49.546;7.400;2022-07-12T03:21:26;99435.38;;;14.87;95.49
68948;BME280;55996;49.546;7.400;2022-07-12T03:23:52;99431.84;;;14.88;96.24
68948;BME280;55996;49.546;7.400;2022-07-12T03:26:17;99438.09;;;14.85;96.53
68948;BME280;55996;49.546;7.400;2022-07-12T03:28:43;99437.72;;;14.94;96.32
68948;BME280;55996;49.546;7.400;2022-07-12T03:31:08;99432.50;;;14.93;96.60
68948;BME280;55996;49.546;7.400;2022-07-12T03:33:34;99436.06;;;14.92;94.51
68948;BME280;55996;49.546;7.400;2022-07-12T03:36:01;99429.56;;;15.00;92.33
68948;BME280;55996;49.546;7.400;2022-07-12T03:38:26;99441.88;;;15.00;93.59
68948;BME280;55996;49.546;7.400;2022-07-12T03:40:52;99427.38;;;14.90;93.38
68948;BME280;55996;49.546;7.400;2022-07-12T03:43:17;99433.06;;;15.01;93.16
68948;BME280;55996;49.546;7.400;2022-07-12T03:45:43;99426.63;;;14.86;93.82
68948;BME280;55996;49.546;7.400;2022-07-12T03:48:08;99430.13;;;14.87;93.82
68948;BME280;55996;49.546;7.400;2022-07-12T03:50:34;99431.59;;;14.94;93.91
68948;BME280;55996;49.546;7.400;2022-07-12T03:52:59;99439.59;;;14.91;92.76
68948;BME280;55996;49.546;7.400;2022-07-12T03:55:24;99421.53;;;14.81;92.65
68948;BME280;55996;49.546;7.400;2022-07-12T03:57:50;99437.72;;;14.94;92.58
68948;BME280;55996;49.546;7.400;2022-07-12T04:00:16;99433.56;;;14.89;92.54
68948;BME280;55996;49.546;7.400;2022-07-12T04:02:42;99442.88;;;14.97;92.05
68948;BME280;55996;49.546;7.400;2022-07-12T04:05:08;99434.28;;;14.92;93.24
68948;BME280;55996;49.546;7.400;2022-07-12T04:07:36;99443.44;;;14.82;96.16
68948;BME280;55996;49.546;7.400;2022-07-12T04:10:02;99442.16;;;14.70;97.30
68948;BME280;55996;49.546;7.400;2022-07-12T04:12:28;99437.81;;;14.69;98.80
68948;BME280;55996;49.546;7.400;2022-07-12T04:14:53;99436.81;;;14.72;99.04
68948;BME280;55996;49.546;7.400;2022-07-12T04:17:19;99430.19;;;14.61;97.94
68948;BME280;55996;49.546;7.400;2022-07-12T04:19:44;99425.16;;;14.55;97.80
68948;BME280;55996;49.546;7.400;2022-07-12T04:22:10;99440.50;;;14.67;97.60
68948;BME280;55996;49.546;7.400;2022-07-12T04:24:35;99443.97;;;14.68;99.12
68948;BME280;55996;49.546;7.400;2022-07-12T04:27:01;99433.16;;;14.76;98.52
68948;BME280;55996;49.546;7.400;2022-07-12T04:29:26;99426.66;;;14.61;99.42
68948;BME280;55996;49.546;7.400;2022-07-12T04:31:51;99426.84;;;14.56;99.37
68948;BME280;55996;49.546;7.400;2022-07-12T04:34:17;99432.53;;;14.69;98.96
68948;BME280;55996;49.546;7.400;2022-07-12T04:36:44;99430.97;;;14.87;98.69
68948;BME280;55996;49.546;7.400;2022-07-12T04:39:09;99422.66;;;14.98;99.69
68948;BME280;55996;49.546;7.400;2022-07-12T04:41:35;99418.44;;;15.16;99.79
68948;BME280;55996;49.546;7.400;2022-07-12T04:44:03;99438.19;;;15.48;98.15
68948;BME280;55996;49.546;7.400;2022-07-12T04:46:29;99423.59;;;15.62;98.39
68948;BME280;55996;49.546;7.400;2022-07-12T04:48:54;99409.03;;;15.74;95.39
68948;BME280;55996;49.546;7.400;2022-07-12T04:51:20;99414.78;;;15.84;96.10
68948;BME280;55996;49.546;7.400;2022-07-12T04:53:45;99429.31;;;15.94;97.12
68948;BME280;55996;49.546;7.400;2022-07-12T04:56:11;99423.31;;;15.90;97.04
68948;BME280;55996;49.546;7.400;2022-07-12T04:58:37;99429.69;;;16.05;97.19
68948;BME280;55996;49.546;7.400;2022-07-12T05:01:02;99424.34;;;16.07;97.80
68948;BME280;55996;49.546;7.400;2022-07-12T05:03:28;99428.63;;;16.09;97.40
68948;BME280;55996;49.546;7.400;2022-07-12T05:05:54;99441.81;;;16.30;97.17
68948;BME280;55996;49.546;7.400;2022-07-12T05:08:20;99438.38;;;16.47;96.85
68948;BME280;55996;49.546;7.400;2022-07-12T05:10:45;99426.00;;;16.68;96.34
68948;BME280;55996;49.546;7.400;2022-07-12T05:13:11;99437.56;;;16.85;96.67
68948;BME280;55996;49.546;7.400;2022-07-12T05:15:36;99426.13;;;16.84;97.08
68948;BME280;55996;49.546;7.400;2022-07-12T05:18:02;99438.25;;;17.26;96.27
68948;BME280;55996;49.546;7.400;2022-07-12T05:20:27;99433.41;;;17.54;95.66
68948;BME280;55996;49.546;7.400;2022-07-12T05:22:53;99435.84;;;17.94;94.06
68948;BME280;55996;49.546;7.400;2022-07-12T05:25:19;99455.47;;;18.41;92.63
68948;BME280;55996;49.546;7.400;2022-07-12T05:27:45;99448.63;;;18.86;90.65
68948;BME280;55996;49.546;7.400;2022-07-12T05:30:10;99451.56;;;19.29;88.07
68948;BME280;55996;49.546;7.400;2022-07-12T05:32:36;99440.34;;;19.71;85.72
68948;BME280;55996;49.546;7.400;2022-07-12T05:35:01;99457.31;;;20.13;83.11
68948;BME280;55996;49.546;7.400;2022-07-12T05:37:27;99450.72;;;20.49;80.68
68948;BME280;55996;49.546;7.400;2022-07-12T05:39:52;99452.22;;;20.96;79.78
68948;BME280;55996;49.546;7.400;2022-07-12T05:42:18;99462.75;;;21.40;77.53
68948;BME280;55996;49.546;7.400;2022-07-12T05:44:44;99454.25;;;21.88;75.45
68948;BME280;55996;49.546;7.400;2022-07-12T05:47:10;99443.09;;;22.21;73.33
68948;BME280;55996;49.546;7.400;2022-07-12T05:49:35;99447.59;;;22.60;71.97
68948;BME280;55996;49.546;7.400;2022-07-12T05:52:01;99429.72;;;22.86;71.21
68948;BME280;55996;49.546;7.400;2022-07-12T05:54:45;99447.28;;;23.39;71.02
68948;BME280;55996;49.546;7.400;2022-07-12T05:57:10;99451.41;;;23.67;68.22
68948;BME280;55996;49.546;7.400;2022-07-12T05:59:36;99449.66;;;23.90;66.33
68948;BME280;55996;49.546;7.400;2022-07-12T06:02:02;99452.63;;;24.10;64.87
68948;BME280;55996;49.546;7.400;2022-07-12T06:04:28;99449.41;;;24.29;61.89
68948;BME280;55996;49.546;7.400;2022-07-12T06:06:53;99459.97;;;24.53;60.58
68948;BME280;55996;49.546;7.400;2022-07-12T06:09:18;99455.75;;;24.73;59.71
68948;BME280;55996;49.546;7.400;2022-07-12T06:11:44;99460.97;;;24.97;57.82
68948;BME280;55996;49.546;7.400;2022-07-12T06:14:09;99452.03;;;25.20;57.33
68948;BME280;55996;49.546;7.400;2022-07-12T06:16:35;99462.97;;;25.39;57.51
68948;BME280;55996;49.546;7.400;2022-07-12T06:19:00;99468.09;;;25.64;54.93
68948;BME280;55996;49.546;7.400;2022-07-12T06:21:26;99469.94;;;25.84;54.84
68948;BME280;55996;49.546;7.400;2022-07-12T06:23:51;99469.22;;;25.82;57.36
68948;BME280;55996;49.546;7.400;2022-07-12T06:26:18;99467.66;;;26.01;56.52
68948;BME280;55996;49.546;7.400;2022-07-12T06:28:43;99460.44;;;26.13;55.31
68948;BME280;55996;49.546;7.400;2022-07-12T06:31:09;99467.38;;;26.15;56.17
68948;BME280;55996;49.546;7.400;2022-07-12T06:33:34;99457.09;;;26.20;54.75
68948;BME280;55996;49.546;7.400;2022-07-12T06:36:00;99468.75;;;26.09;55.08
68948;BME280;55996;49.546;7.400;2022-07-12T06:38:25;99462.88;;;25.62;56.05
68948;BME280;55996;49.546;7.400;2022-07-12T06:40:51;99480.00;;;25.38;58.07
68948;BME280;55996;49.546;7.400;2022-07-12T06:43:16;99479.06;;;24.94;59.69
68948;BME280;55996;49.546;7.400;2022-07-12T06:45:42;99466.81;;;24.57;60.87
68948;BME280;55996;49.546;7.400;2022-07-12T06:48:07;99472.84;;;24.48;61.65
68948;BME280;55996;49.546;7.400;2022-07-12T06:50:33;99483.06;;;24.31;62.97
68948;BME280;55996;49.546;7.400;2022-07-12T06:52:59;99485.00;;;23.94;62.36
68948;BME280;55996;49.546;7.400;2022-07-12T06:55:24;99479.41;;;23.85;63.47
68948;BME280;55996;49.546;7.400;2022-07-12T06:57:50;99475.09;;;23.72;64.18
68948;BME280;55996;49.546;7.400;2022-07-12T07:00:15;99469.47;;;23.63;63.95
68948;BME280;55996;49.546;7.400;2022-07-12T07:02:41;99476.06;;;23.46;64.26
68948;BME280;55996;49.546;7.400;2022-07-12T07:05:07;99485.94;;;23.33;66.14
68948;BME280;55996;49.546;7.400;2022-07-12T07:07:33;99472.56;;;23.09;66.01
68948;BME280;55996;49.546;7.400;2022-07-12T07:09:59;99477.63;;;22.87;67.46
68948;BME280;55996;49.546;7.400;2022-07-12T07:12:24;99481.47;;;22.83;67.83
68948;BME280;55996;49.546;7.400;2022-07-12T07:14:50;99484.28;;;22.69;68.53
68948;BME280;55996;49.546;7.400;2022-07-12T07:17:16;99486.72;;;22.46;69.43
68948;BME280;55996;49.546;7.400;2022-07-12T07:19:45;99492.50;;;22.53;70.04
68948;BME280;55996;49.546;7.400;2022-07-12T07:22:13;99490.91;;;22.50;69.25
68948;BME280;55996;49.546;7.400;2022-07-12T07:24:39;99500.31;;;22.29;67.37
68948;BME280;55996;49.546;7.400;2022-07-12T07:27:05;99497.63;;;22.03;70.10
68948;BME280;55996;49.546;7.400;2022-07-12T07:29:31;99500.22;;;22.17;69.81
68948;BME280;55996;49.546;7.400;2022-07-12T07:32:15;99482.88;;;22.24;69.40
68948;BME280;55996;49.546;7.400;2022-07-12T07:34:40;99490.44;;;22.31;70.42
68948;BME280;55996;49.546;7.400;2022-07-12T07:37:07;99494.34;;;22.25;68.69
68948;BME280;55996;49.546;7.400;2022-07-12T07:39:33;99492.97;;;22.32;67.97
68948;BME280;55996;49.546;7.400;2022-07-12T07:41:58;99494.94;;;22.56;67.92
68948;BME280;55996;49.546;7.400;2022-07-12T07:44:24;99506.31;;;22.71;66.40
68948;BME280;55996;49.546;7.400;2022-07-12T07:46:49;99510.81;;;22.70;66.37
68948;BME280;55996;49.546;7.400;2022-07-12T07:49:14;99498.03;;;22.63;66.86
68948;BME280;55996;49.546;7.400;2022-07-12T07:51:40;99493.34;;;22.66;66.10
68948;BME280;55996;49.546;7.400;2022-07-12T07:54:05;99486.94;;;22.43;65.22
68948;BME280;55996;49.546;7.400;2022-07-12T07:56:31;99491.50;;;22.28;66.74
68948;BME280;55996;49.546;7.400;2022-07-12T07:58:56;99495.66;;;22.32;65.83
68948;BME280;55996;49.546;7.400;2022-07-12T08:01:22;99489.91;;;22.25;66.14
68948;BME280;55996;49.546;7.400;2022-07-12T08:04:09;99489.91;;;22.25;66.44
68948;BME280;55996;49.546;7.400;2022-07-12T08:06:34;99482.44;;;22.31;66.30
68948;BME280;55996;49.546;7.400;2022-07-12T08:09:00;99505.47;;;22.32;65.72
68948;BME280;55996;49.546;7.400;2022-07-12T08:11:25;99494.00;;;22.44;66.36
68948;BME280;55996;49.546;7.400;2022-07-12T08:13:51;99506.03;;;22.63;64.59
68948;BME280;55996;49.546;7.400;2022-07-12T08:16:16;99495.88;;;22.68;61.59
68948;BME280;55996;49.546;7.400;2022-07-12T08:18:42;99503.22;;;22.77;61.21
68948;BME280;55996;49.546;7.400;2022-07-12T08:21:07;99514.19;;;22.85;60.75
68948;BME280;55996;49.546;7.400;2022-07-12T08:23:32;99492.03;;;22.85;56.16
68948;BME280;55996;49.546;7.400;2022-07-12T08:25:58;99501.63;;;22.87;57.74
68948;BME280;55996;49.546;7.400;2022-07-12T08:28:23;99511.94;;;23.05;56.95
68948;BME280;55996;49.546;7.400;2022-07-12T08:30:49;99506.88;;;23.13;54.54
68948;BME280;55996;49.546;7.400;2022-07-12T08:33:15;99503.16;;;23.29;56.33
68948;BME280;55996;49.546;7.400;2022-07-12T08:35:40;99507.91;;;23.36;57.08
68948;BME280;55996;49.546;7.400;2022-07-12T08:38:06;99496.66;;;23.44;54.28
68948;BME280;55996;49.546;7.400;2022-07-12T08:40:32;99502.75;;;23.46;52.75
68948;BME280;55996;49.546;7.400;2022-07-12T08:42:57;99502.81;;;23.58;54.81
68948;BME280;55996;49.546;7.400;2022-07-12T08:45:23;99501.84;;;23.83;53.43
68948;BME280;55996;49.546;7.400;2022-07-12T08:47:48;99516.41;;;23.90;54.94
68948;BME280;55996;49.546;7.400;2022-07-12T08:50:17;99519.44;;;24.10;55.25
68948;BME280;55996;49.546;7.400;2022-07-12T08:52:53;99519.72;;;24.29;54.20
68948;BME280;55996;49.546;7.400;2022-07-12T08:57:57;99514.34;;;24.88;54.27
68948;BME280;55996;49.546;7.400;2022-07-12T09:00:24;99513.13;;;24.92;53.71
68948;BME280;55996;49.546;7.400;2022-07-12T09:05:21;99506.78;;;24.93;53.40
68948;BME280;55996;49.546;7.400;2022-07-12T09:07:47;99485.00;;;25.09;53.86
68948;BME280;55996;49.546;7.400;2022-07-12T09:10:14;99487.25;;;25.36;51.66
68948;BME280;55996;49.546;7.400;2022-07-12T09:12:41;99465.78;;;25.91;51.29
68948;BME280;55996;49.546;7.400;2022-07-12T09:15:25;99469.84;;;26.28;47.66
68948;BME280;55996;49.546;7.400;2022-07-12T09:20:35;99472.72;;;26.98;46.46
68948;BME280;55996;49.546;7.400;2022-07-12T09:23:07;99469.31;;;27.86;43.50
68948;BME280;55996;49.546;7.400;2022-07-12T09:25:34;99470.91;;;28.46;42.13
68948;BME280;55996;49.546;7.400;2022-07-12T09:28:04;99465.13;;;29.52;39.49
68948;BME280;55996;49.546;7.400;2022-07-12T09:30:31;99467.03;;;30.22;37.10
68948;BME280;55996;49.546;7.400;2022-07-12T09:32:57;99473.44;;;30.82;36.37
68948;BME280;55996;49.546;7.400;2022-07-12T09:35:41;99472.31;;;30.58;34.52
68948;BME280;55996;49.546;7.400;2022-07-12T09:38:26;99462.81;;;31.32;34.04
68948;BME280;55996;49.546;7.400;2022-07-12T09:40:53;99460.97;;;32.40;33.38
68948;BME280;55996;49.546;7.400;2022-07-12T09:43:20;99466.03;;;33.30;30.94
68948;BME280;55996;49.546;7.400;2022-07-12T09:45:47;99452.25;;;33.63;30.64
68948;BME280;55996;49.546;7.400;2022-07-12T09:48:13;99453.25;;;34.24;29.63
68948;BME280;55996;49.546;7.400;2022-07-12T09:50:38;99454.13;;;33.63;30.03
68948;BME280;55996;49.546;7.400;2022-07-12T09:53:04;99452.56;;;33.92;30.37
68948;BME280;55996;49.546;7.400;2022-07-12T09:55:32;99463.75;;;33.89;29.39
68948;BME280;55996;49.546;7.400;2022-07-12T09:58:01;99449.88;;;33.45;30.26
68948;BME280;55996;49.546;7.400;2022-07-12T10:00:27;99454.50;;;33.83;30.75
68948;BME280;55996;49.546;7.400;2022-07-12T10:02:53;99437.72;;;33.79;30.14
68948;BME280;55996;49.546;7.400;2022-07-12T10:05:21;99435.28;;;34.23;29.22
68948;BME280;55996;49.546;7.400;2022-07-12T10:07:49;99453.00;;;33.26;31.04
68948;BME280;55996;49.546;7.400;2022-07-12T10:10:16;99454.69;;;32.47;31.53
68948;BME280;55996;49.546;7.400;2022-07-12T10:12:42;99447.84;;;33.08;30.86
68948;BME280;55996;49.546;7.400;2022-07-12T10:15:18;99461.00;;;33.51;29.95
68948;BME280;55996;49.546;7.400;2022-07-12T10:17:53;99457.75;;;33.24;30.59
68948;BME280;55996;49.546;7.400;2022-07-12T10:20:20;99470.28;;;33.56;29.88
68948;BME280;55996;49.546;7.400;2022-07-12T10:22:52;99455.25;;;33.92;29.93
68948;BME280;55996;49.546;7.400;2022-07-12T10:25:29;99463.69;;;33.97;29.20
68948;BME280;55996;49.546;7.400;2022-07-12T10:27:55;99470.63;;;33.30;29.94
68948;BME280;55996;49.546;7.400;2022-07-12T10:30:24;99470.47;;;32.44;30.48
68948;BME280;55996;49.546;7.400;2022-07-12T10:32:52;99464.38;;;32.42;33.01
68948;BME280;55996;49.546;7.400;2022-07-12T10:35:21;99460.78;;;32.41;31.53
68948;BME280;55996;49.546;7.400;2022-07-12T10:40:38;99466.50;;;31.14;33.42
68948;BME280;55996;49.546;7.400;2022-07-12T10:48:04;99458.25;;;28.56;37.84
68948;BME280;55996;49.546;7.400;2022-07-12T10:50:50;99474.22;;;27.81;40.46
68948;BME280;55996;49.546;7.400;2022-07-12T10:58:46;99481.34;;;26.40;42.24
68948;BME280;55996;49.546;7.400;2022-07-12T11:06:03;99469.69;;;25.87;42.08
68948;BME280;55996;49.546;7.400;2022-07-12T11:08:30;99478.22;;;25.81;43.13
68948;BME280;55996;49.546;7.400;2022-07-12T11:10:56;99473.41;;;25.75;45.26
68948;BME280;55996;49.546;7.400;2022-07-12T11:13:23;99485.50;;;25.69;44.73
68948;BME280;55996;49.546;7.400;2022-07-12T11:15:59;99478.44;;;25.68;44.96
68948;BME280;55996;49.546;7.400;2022-07-12T11:18:31;99482.84;;;25.58;42.97
68948;BME280;55996;49.546;7.400;2022-07-12T11:20:58;99478.47;;;25.57;44.36
68948;BME280;55996;49.546;7.400;2022-07-12T11:23:27;99480.19;;;25.58;42.89
68948;BME280;55996;49.546;7.400;2022-07-12T11:25:54;99466.34;;;25.53;43.31
68948;BME280;55996;49.546;7.400;2022-07-12T11:28:20;99457.69;;;25.49;44.41
68948;BME280;55996;49.546;7.400;2022-07-12T11:30:53;99464.41;;;25.43;43.31
68948;BME280;55996;49.546;7.400;2022-07-12T11:33:24;99447.88;;;25.27;43.26
68948;BME280;55996;49.546;7.400;2022-07-12T11:35:51;99457.47;;;25.41;44.12
68948;BME280;55996;49.546;7.400;2022-07-12T11:38:24;99462.19;;;25.49;44.43
68948;BME280;55996;49.546;7.400;2022-07-12T11:40:55;99457.34;;;25.31;42.93
68948;BME280;55996;49.546;7.400;2022-07-12T11:43:21;99444.22;;;25.39;44.77
68948;BME280;55996;49.546;7.400;2022-07-12T11:45:47;99435.16;;;25.52;45.78
68948;BME280;55996;49.546;7.400;2022-07-12T11:48:13;99430.41;;;25.55;44.70
68948;BME280;55996;49.546;7.400;2022-07-12T11:50:42;99438.38;;;25.67;42.54
68948;BME280;55996;49.546;7.400;2022-07-12T11:53:25;99451.84;;;25.76;42.89
68948;BME280;55996;49.546;7.400;2022-07-12T11:55:53;99435.56;;;25.68;42.35
68948;BME280;55996;49.546;7.400;2022-07-12T11:58:21;99440.56;;;25.73;43.14
68948;BME280;55996;49.546;7.400;2022-07-12T12:00:48;99442.97;;;25.76;41.59
68948;BME280;55996;49.546;7.400;2022-07-12T12:03:15;99439.75;;;25.82;41.38
68948;BME280;55996;49.546;7.400;2022-07-12T12:05:46;99442.19;;;25.85;41.37
68948;BME280;55996;49.546;7.400;2022-07-12T12:08:13;99437.34;;;25.79;39.38
68948;BME280;55996;49.546;7.400;2022-07-12T12:10:43;99438.72;;;25.73;40.20
68948;BME280;55996;49.546;7.400;2022-07-12T12:13:17;99426.50;;;25.81;38.22
68948;BME280;55996;49.546;7.400;2022-07-12T12:16:00;99425.97;;;25.87;39.28
68948;BME280;55996;49.546;7.400;2022-07-12T12:18:29;99432.06;;;25.89;40.27
68948;BME280;55996;49.546;7.400;2022-07-12T12:21:00;99433.03;;;25.88;40.50
68948;BME280;55996;49.546;7.400;2022-07-12T12:23:27;99417.03;;;25.76;40.07
68948;BME280;55996;49.546;7.400;2022-07-12T12:25:52;99425.84;;;25.88;38.80
68948;BME280;55996;49.546;7.400;2022-07-12T12:28:18;99427.94;;;25.85;38.90
68948;BME280;55996;49.546;7.400;2022-07-12T12:30:54;99424.47;;;25.94;39.79
68948;BME280;55996;49.546;7.400;2022-07-12T12:33:42;99411.53;;;25.99;39.93
68948;BME280;55996;49.546;7.400;2022-07-12T12:36:15;99423.31;;;26.08;39.29
68948;BME280;55996;49.546;7.400;2022-07-12T12:38:41;99415.41;;;26.06;40.77
68948;BME280;55996;49.546;7.400;2022-07-12T12:41:10;99421.97;;;26.02;39.10
68948;BME280;55996;49.546;7.400;2022-07-12T12:43:36;99403.06;;;25.94;38.77
68948;BME280;55996;49.546;7.400;2022-07-12T12:46:02;99405.19;;;26.00;40.22
68948;BME280;55996;49.546;7.400;2022-07-12T12:48:29;99413.09;;;26.02;40.62
68948;BME280;55996;49.546;7.400;2022-07-12T12:51:09;99406.31;;;25.98;41.15
68948;BME280;55996;49.546;7.400;2022-07-12T12:53:36;99404.22;;;26.01;42.16
68948;BME280;55996;49.546;7.400;2022-07-12T12:56:14;99395.72;;;25.96;42.86
68948;BME280;55996;49.546;7.400;2022-07-12T12:58:40;99403.94;;;26.04;43.79
68948;BME280;55996;49.546;7.400;2022-07-12T13:01:07;99394.94;;;26.05;39.03
68948;BME280;55996;49.546;7.400;2022-07-12T13:03:33;99403.84;;;26.06;38.13
68948;BME280;55996;49.546;7.400;2022-07-12T13:05:58;99399.19;;;26.08;39.31
68948;BME280;55996;49.546;7.400;2022-07-12T13:08:25;99402.31;;;26.13;40.04
68948;BME280;55996;49.546;7.400;2022-07-12T13:10:50;99396.28;;;26.11;38.18
68948;BME280;55996;49.546;7.400;2022-07-12T13:13:37;99398.13;;;26.20;39.76
68948;BME280;55996;49.546;7.400;2022-07-12T13:16:03;99397.88;;;26.23;38.06
68948;BME280;55996;49.546;7.400;2022-07-12T13:18:29;99401.25;;;26.25;41.66
68948;BME280;55996;49.546;7.400;2022-07-12T13:20:54;99386.34;;;26.33;39.07
68948;BME280;55996;49.546;7.400;2022-07-12T13:23:20;99363.44;;;26.19;39.80
68948;BME280;55996;49.546;7.400;2022-07-12T13:25:45;99387.47;;;26.30;38.76
68948;BME280;55996;49.546;7.400;2022-07-12T13:28:11;99365.38;;;26.17;37.83